createdAt,value
2019-05-12T00:02:30.367Z,1.20
2019-05-12T00:05:01.237Z,1.10
2019-05-12T00:07:31.690Z,1.40
2019-05-12T00:10:02.237Z,1.30
2019-05-12T00:12:33.059Z,1.40
2019-05-12T00:15:03.544Z,1.30
2019-05-12T00:17:34.222Z,1.30
2019-05-12T00:20:08.340Z,2.10
2019-05-12T00:22:52.484Z,1.37
2019-05-12T00:25:23.329Z,1.60
2019-05-12T00:27:54.096Z,1.73
2019-05-12T00:30:38.525Z,1.93
2019-05-12T00:33:09.332Z,1.80
2019-05-12T00:35:40.798Z,1.90
2019-05-12T00:38:11.541Z,1.83
2019-05-12T00:40:42.345Z,1.73
2019-05-12T00:43:13.222Z,1.70
2019-05-12T00:45:43.840Z,1.70
2019-05-12T00:48:14.557Z,1.83
2019-05-12T00:53:14.779Z,1.40
2019-05-12T00:55:47.530Z,2.17
2019-05-12T00:58:19.400Z,2.13
2019-05-12T01:00:49.614Z,1.80
2019-05-12T01:03:20.457Z,2.43
2019-05-12T01:05:51.047Z,2.60
2019-05-12T01:08:21.955Z,1.97
2019-05-12T01:10:52.426Z,1.60
2019-05-12T01:13:23.036Z,2.57
2019-05-12T01:15:53.501Z,2.07
2019-05-12T01:18:24.211Z,2.27
2019-05-12T01:20:54.669Z,1.73
2019-05-12T01:23:25.239Z,2.13
2019-05-12T01:25:58.296Z,1.90
2019-05-12T01:28:28.481Z,2.20
2019-05-12T01:31:01.051Z,2.30
2019-05-12T01:33:31.973Z,2.57
2019-05-12T01:36:03.037Z,1.83
2019-05-12T01:38:34.046Z,1.70
2019-05-12T01:41:04.589Z,2.47
2019-05-12T01:46:08.077Z,2.57
2019-05-12T01:48:38.937Z,2.37
2019-05-12T01:51:09.660Z,2.20
2019-05-12T01:53:40.427Z,2.30
2019-05-12T01:56:11.230Z,2.27
2019-05-12T01:58:41.761Z,2.23
2019-05-12T02:01:12.668Z,2.60
2019-05-12T02:03:45.209Z,2.40
2019-05-12T02:06:15.670Z,2.30
2019-05-12T02:08:49.085Z,2.90
2019-05-12T02:11:35.235Z,2.97
2019-05-12T02:14:40.605Z,3.20
2019-05-12T02:19:40.975Z,2.20
2019-05-12T02:22:11.452Z,2.33
2019-05-12T02:24:42.332Z,2.13
2019-05-12T02:27:13.216Z,2.80
2019-05-12T02:29:43.753Z,2.67
2019-05-12T02:33:35.623Z,2.57
2019-05-12T02:36:06.039Z,3.03
2019-05-12T02:38:36.843Z,2.67
2019-05-12T02:41:07.668Z,2.23
2019-05-12T02:43:38.563Z,2.37
2019-05-12T02:48:39.088Z,2.87
2019-05-12T02:51:10.207Z,2.87
2019-05-12T02:53:40.661Z,2.83
2019-05-12T02:56:11.679Z,3.20
2019-05-12T02:58:45.252Z,2.87
2019-05-12T03:01:15.356Z,2.43
2019-05-12T03:03:46.036Z,3.07
2019-05-12T03:06:17.036Z,2.63
2019-05-12T03:08:47.825Z,2.50
2019-05-12T09:35:44.991Z,1.63
